sensor_id;sensor_type;location;lat;lon;timestamp;pressure;altitude;pressure_sealevel;temperature;humidity
56270;BME280;42176;43.240;27.880;2023-03-19T00:01:57;100738.06;;;5.75;100.00
56270;BME280;42176;43.240;27.880;2023-03-19T00:04:24;100740.94;;;5.04;100.00
56270;BME280;42176;43.240;27.880;2023-03-19T00:06:50;100742.06;;;5.29;100.00
56270;BME280;42176;43.240;27.880;2023-03-19T00:09:17;100741.38;;;5.54;100.00
56270;BME280;42176;43.240;27.880;2023-03-19T00:11:43;100740.78;;;5.87;100.00
56270;BME280;42176;43.240;27.880;2023-03-19T00:14:08;100735.16;;;5.41;100.00
56270;BME280;42176;43.240;27.880;2023-03-19T00:16:34;100723.41;;;5.05;100.00
56270;BME280;42176;43.240;27.880;2023-03-19T00:19:00;100739.50;;;5.40;100.00
56270;BME280;42176;43.240;27.880;2023-03-19T00:21:26;100740.56;;;5.62;100.00
56270;BME280;42176;43.240;27.880;2023-03-19T00:23:52;100739.84;;;5.82;100.00
56270;BME280;42176;43.240;27.880;2023-03-19T00:26:18;100730.06;;;5.62;100.00
56270;BME280;42176;43.240;27.880;2023-03-19T00:28:43;100735.66;;;5.01;100.00
56270;BME280;42176;43.240;27.880;2023-03-19T00:31:14;100727.94;;;5.21;100.00
56270;BME280;42176;43.240;27.880;2023-03-19T00:33:40;100733.41;;;5.46;100.00
56270;BME280;42176;43.240;27.880;2023-03-19T00:36:08;100708.03;;;5.46;100.00
56270;BME280;42176;43.240;27.880;2023-03-19T00:38:34;100719.13;;;5.13;100.00
56270;BME280;42176;43.240;27.880;2023-03-19T00:41:04;100723.66;;;5.29;100.00
56270;BME280;42176;43.240;27.880;2023-03-19T00:43:30;100717.81;;;5.63;100.00
56270;BME280;42176;43.240;27.880;2023-03-19T00:45:56;100716.72;;;5.36;100.00
56270;BME280;42176;43.240;27.880;2023-03-19T00:48:22;100723.56;;;5.18;100.00
56270;BME280;42176;43.240;27.880;2023-03-19T00:50:48;100717.50;;;5.30;100.00
56270;BME280;42176;43.240;27.880;2023-03-19T00:53:14;100724.69;;;5.50;100.00
56270;BME280;42176;43.240;27.880;2023-03-19T00:55:39;100720.50;;;5.71;100.00
56270;BME280;42176;43.240;27.880;2023-03-19T00:58:05;100725.00;;;5.90;100.00
56270;BME280;42176;43.240;27.880;2023-03-19T01:00:32;100679.56;;;5.00;100.00
56270;BME280;42176;43.240;27.880;2023-03-19T01:02:58;100725.53;;;5.43;100.00
56270;BME280;42176;43.240;27.880;2023-03-19T01:05:23;100733.66;;;5.77;100.00
56270;BME280;42176;43.240;27.880;2023-03-19T01:07:49;100724.38;;;5.16;100.00
56270;BME280;42176;43.240;27.880;2023-03-19T01:10:18;100720.00;;;5.13;100.00
56270;BME280;42176;43.240;27.880;2023-03-19T01:12:44;100721.94;;;5.34;100.00
56270;BME280;42176;43.240;27.880;2023-03-19T01:15:10;100714.31;;;5.66;100.00
56270;BME280;42176;43.240;27.880;2023-03-19T01:17:35;100713.97;;;5.25;100.00
56270;BME280;42176;43.240;27.880;2023-03-19T01:20:01;100717.66;;;5.43;100.00
56270;BME280;42176;43.240;27.880;2023-03-19T01:22:27;100709.03;;;5.64;100.00
56270;BME280;42176;43.240;27.880;2023-03-19T01:24:53;100708.22;;;5.73;100.00
56270;BME280;42176;43.240;27.880;2023-03-19T01:27:19;100704.31;;;5.21;100.00
56270;BME280;42176;43.240;27.880;2023-03-19T01:29:45;100703.56;;;5.38;100.00
56270;BME280;42176;43.240;27.880;2023-03-19T01:32:10;100710.91;;;5.81;100.00
56270;BME280;42176;43.240;27.880;2023-03-19T01:34:36;100701.66;;;5.21;100.00
56270;BME280;42176;43.240;27.880;2023-03-19T01:37:01;100706.06;;;5.21;100.00
56270;BME280;42176;43.240;27.880;2023-03-19T01:39:27;100708.81;;;5.39;100.00
56270;BME280;42176;43.240;27.880;2023-03-19T01:41:52;100699.28;;;5.49;100.00
56270;BME280;42176;43.240;27.880;2023-03-19T01:44:32;100695.19;;;5.88;100.00
56270;BME280;42176;43.240;27.880;2023-03-19T01:47:01;100720.78;;;5.05;100.00
56270;BME280;42176;43.240;27.880;2023-03-19T01:49:29;100706.97;;;5.24;100.00
56270;BME280;42176;43.240;27.880;2023-03-19T01:51:56;100727.38;;;5.53;100.00
56270;BME280;42176;43.240;27.880;2023-03-19T01:54:24;100716.09;;;5.70;100.00
56270;BME280;42176;43.240;27.880;2023-03-19T01:56:55;100705.63;;;5.79;100.00
56270;BME280;42176;43.240;27.880;2023-03-19T02:02:08;100726.38;;;5.39;100.00
56270;BME280;42176;43.240;27.880;2023-03-19T02:04:37;100748.59;;;5.75;100.00
56270;BME280;42176;43.240;27.880;2023-03-19T02:07:04;100713.94;;;5.22;100.00
56270;BME280;42176;43.240;27.880;2023-03-19T02:09:30;100715.28;;;4.80;100.00
56270;BME280;42176;43.240;27.880;2023-03-19T02:11:57;100737.50;;;5.11;100.00
56270;BME280;42176;43.240;27.880;2023-03-19T02:14:23;100734.44;;;5.62;100.00
56270;BME280;42176;43.240;27.880;2023-03-19T02:16:49;100725.44;;;5.32;100.00
56270;BME280;42176;43.240;27.880;2023-03-19T02:19:44;100736.72;;;5.20;100.00
56270;BME280;42176;43.240;27.880;2023-03-19T02:22:13;100732.50;;;5.39;100.00
56270;BME280;42176;43.240;27.880;2023-03-19T02:24:50;100739.53;;;5.43;100.00
56270;BME280;42176;43.240;27.880;2023-03-19T02:27:18;100733.59;;;5.68;100.00
56270;BME280;42176;43.240;27.880;2023-03-19T02:29:43;100737.28;;;5.88;100.00
56270;BME280;42176;43.240;27.880;2023-03-19T02:32:09;100736.38;;;5.88;100.00
56270;BME280;42176;43.240;27.880;2023-03-19T02:34:39;100739.22;;;6.14;100.00
56270;BME280;42176;43.240;27.880;2023-03-19T02:37:10;100737.00;;;5.54;100.00
56270;BME280;42176;43.240;27.880;2023-03-19T02:39:49;100735.78;;;5.13;100.00
56270;BME280;42176;43.240;27.880;2023-03-19T02:42:18;100754.34;;;5.33;100.00
56270;BME280;42176;43.240;27.880;2023-03-19T02:44:43;100764.19;;;5.55;100.00
56270;BME280;42176;43.240;27.880;2023-03-19T02:47:10;100757.09;;;5.43;100.00
56270;BME280;42176;43.240;27.880;2023-03-19T02:49:35;100762.84;;;5.05;100.00
56270;BME280;42176;43.240;27.880;2023-03-19T02:52:01;100766.56;;;5.25;100.00
56270;BME280;42176;43.240;27.880;2023-03-19T02:54:26;100764.16;;;5.50;100.00
56270;BME280;42176;43.240;27.880;2023-03-19T02:56:52;100768.78;;;5.82;100.00
56270;BME280;42176;43.240;27.880;2023-03-19T02:59:18;100756.75;;;5.10;100.00
56270;BME280;42176;43.240;27.880;2023-03-19T03:01:44;100780.59;;;5.30;100.00
56270;BME280;42176;43.240;27.880;2023-03-19T03:04:10;100767.59;;;5.46;100.00
56270;BME280;42176;43.240;27.880;2023-03-19T03:06:35;100770.38;;;5.58;100.00
56270;BME280;42176;43.240;27.880;2023-03-19T03:09:01;100763.56;;;4.91;100.00
56270;BME280;42176;43.240;27.880;2023-03-19T03:11:28;100773.41;;;5.11;100.00
56270;BME280;42176;43.240;27.880;2023-03-19T03:13:53;100766.63;;;5.34;100.00
56270;BME280;42176;43.240;27.880;2023-03-19T03:16:19;100775.56;;;5.51;100.00
56270;BME280;42176;43.240;27.880;2023-03-19T03:18:44;100769.59;;;5.73;100.00
56270;BME280;42176;43.240;27.880;2023-03-19T03:21:10;100772.59;;;5.16;100.00
56270;BME280;42176;43.240;27.880;2023-03-19T03:23:35;100777.22;;;5.41;100.00
56270;BME280;42176;43.240;27.880;2023-03-19T03:26:01;100772.91;;;5.47;100.00
56270;BME280;42176;43.240;27.880;2023-03-19T03:28:27;100779.16;;;5.63;100.00
56270;BME280;42176;43.240;27.880;2023-03-19T03:30:58;100776.50;;;5.57;100.00
56270;BME280;42176;43.240;27.880;2023-03-19T03:33:24;100783.94;;;5.14;100.00
56270;BME280;42176;43.240;27.880;2023-03-19T03:35:49;100786.75;;;5.31;100.00
56270;BME280;42176;43.240;27.880;2023-03-19T03:38:15;100782.53;;;5.47;100.00
56270;BME280;42176;43.240;27.880;2023-03-19T03:40:42;100770.31;;;5.51;100.00
56270;BME280;42176;43.240;27.880;2023-03-19T03:43:08;100780.16;;;5.78;100.00
56270;BME280;42176;43.240;27.880;2023-03-19T03:45:35;100775.94;;;5.97;100.00
56270;BME280;42176;43.240;27.880;2023-03-19T03:48:01;100778.59;;;5.03;100.00
56270;BME280;42176;43.240;27.880;2023-03-19T03:50:27;100794.59;;;5.26;100.00
56270;BME280;42176;43.240;27.880;2023-03-19T03:52:52;100794.81;;;5.46;100.00
56270;BME280;42176;43.240;27.880;2023-03-19T03:55:17;100795.69;;;5.48;100.00
56270;BME280;42176;43.240;27.880;2023-03-19T03:57:43;100794.44;;;5.11;100.00
56270;BME280;42176;43.240;27.880;2023-03-19T04:00:09;100803.44;;;5.34;100.00
56270;BME280;42176;43.240;27.880;2023-03-19T04:02:35;100788.72;;;5.51;100.00
56270;BME280;42176;43.240;27.880;2023-03-19T04:05:01;100781.81;;;5.65;100.00
56270;BME280;42176;43.240;27.880;2023-03-19T04:07:26;100785.69;;;5.12;100.00
56270;BME280;42176;43.240;27.880;2023-03-19T04:09:52;100776.94;;;5.13;100.00
56270;BME280;42176;43.240;27.880;2023-03-19T04:12:17;100786.00;;;5.46;100.00
56270;BME280;42176;43.240;27.880;2023-03-19T04:14:43;100789.94;;;5.91;100.00
56270;BME280;42176;43.240;27.880;2023-03-19T04:17:08;100792.59;;;5.03;100.00
56270;BME280;42176;43.240;27.880;2023-03-19T04:19:34;100793.47;;;5.01;100.00
56270;BME280;42176;43.240;27.880;2023-03-19T04:21:59;100794.56;;;5.23;100.00
56270;BME280;42176;43.240;27.880;2023-03-19T04:24:27;100793.06;;;5.50;100.00
56270;BME280;42176;43.240;27.880;2023-03-19T04:26:53;100794.06;;;5.64;100.00
56270;BME280;42176;43.240;27.880;2023-03-19T04:29:18;100798.59;;;5.81;100.00
56270;BME280;42176;43.240;27.880;2023-03-19T04:31:44;100791.59;;;5.83;100.00
56270;BME280;42176;43.240;27.880;2023-03-19T04:34:10;100809.28;;;5.06;100.00
56270;BME280;42176;43.240;27.880;2023-03-19T04:36:37;100820.00;;;5.26;100.00
56270;BME280;42176;43.240;27.880;2023-03-19T04:39:03;100809.00;;;5.64;100.00
56270;BME280;42176;43.240;27.880;2023-03-19T04:41:28;100812.06;;;5.21;100.00
56270;BME280;42176;43.240;27.880;2023-03-19T04:43:54;100806.63;;;5.06;100.00
56270;BME280;42176;43.240;27.880;2023-03-19T04:46:19;100832.34;;;5.33;100.00
56270;BME280;42176;43.240;27.880;2023-03-19T04:48:45;100811.38;;;5.39;100.00
56270;BME280;42176;43.240;27.880;2023-03-19T04:51:10;100827.56;;;4.96;100.00
56270;BME280;42176;43.240;27.880;2023-03-19T04:53:36;100826.00;;;5.14;100.00
56270;BME280;42176;43.240;27.880;2023-03-19T04:56:03;100823.56;;;5.32;100.00
56270;BME280;42176;43.240;27.880;2023-03-19T04:58:28;100831.69;;;5.54;100.00
56270;BME280;42176;43.240;27.880;2023-03-19T05:00:54;100821.28;;;5.67;100.00
56270;BME280;42176;43.240;27.880;2023-03-19T05:03:19;100815.25;;;5.80;100.00
56270;BME280;42176;43.240;27.880;2023-03-19T05:05:46;100798.75;;;5.98;100.00
56270;BME280;42176;43.240;27.880;2023-03-19T05:08:11;100817.41;;;5.29;100.00
56270;BME280;42176;43.240;27.880;2023-03-19T05:10:38;100818.97;;;5.10;100.00
56270;BME280;42176;43.240;27.880;2023-03-19T05:13:05;100820.03;;;5.27;100.00
56270;BME280;42176;43.240;27.880;2023-03-19T05:15:31;100828.13;;;5.49;100.00
56270;BME280;42176;43.240;27.880;2023-03-19T05:17:57;100828.38;;;5.75;100.00
56270;BME280;42176;43.240;27.880;2023-03-19T05:20:23;100825.84;;;5.88;100.00
56270;BME280;42176;43.240;27.880;2023-03-19T05:22:48;100810.25;;;6.05;100.00
56270;BME280;42176;43.240;27.880;2023-03-19T05:25:14;100814.75;;;6.24;100.00
56270;BME280;42176;43.240;27.880;2023-03-19T05:27:39;100805.19;;;6.40;100.00
56270;BME280;42176;43.240;27.880;2023-03-19T05:30:06;100807.94;;;6.61;100.00
56270;BME280;42176;43.240;27.880;2023-03-19T05:32:32;100804.31;;;5.32;100.00
56270;BME280;42176;43.240;27.880;2023-03-19T05:34:58;100798.06;;;5.22;100.00
56270;BME280;42176;43.240;27.880;2023-03-19T05:37:24;100820.28;;;5.54;100.00
56270;BME280;42176;43.240;27.880;2023-03-19T05:39:52;100823.94;;;5.71;100.00
56270;BME280;42176;43.240;27.880;2023-03-19T05:42:18;100822.38;;;5.92;100.00
56270;BME280;42176;43.240;27.880;2023-03-19T05:44:43;100821.63;;;6.04;100.00
56270;BME280;42176;43.240;27.880;2023-03-19T05:47:12;100826.16;;;5.28;100.00
56270;BME280;42176;43.240;27.880;2023-03-19T05:49:37;100821.22;;;5.57;100.00
56270;BME280;42176;43.240;27.880;2023-03-19T05:52:03;100831.09;;;5.88;100.00
56270;BME280;42176;43.240;27.880;2023-03-19T05:54:28;100829.59;;;6.12;100.00
56270;BME280;42176;43.240;27.880;2023-03-19T05:56:54;100820.13;;;6.43;100.00
56270;BME280;42176;43.240;27.880;2023-03-19T05:59:20;100805.16;;;6.33;100.00
56270;BME280;42176;43.240;27.880;2023-03-19T06:01:45;100803.63;;;5.53;100.00
56270;BME280;42176;43.240;27.880;2023-03-19T06:04:11;100815.28;;;5.82;100.00
56270;BME280;42176;43.240;27.880;2023-03-19T06:06:36;100824.31;;;6.13;100.00
56270;BME280;42176;43.240;27.880;2023-03-19T06:09:02;100812.22;;;6.37;100.00
56270;BME280;42176;43.240;27.880;2023-03-19T06:11:27;100814.09;;;6.61;100.00
56270;BME280;42176;43.240;27.880;2023-03-19T06:13:53;100808.91;;;6.78;100.00
56270;BME280;42176;43.240;27.880;2023-03-19T06:16:18;100812.50;;;6.96;100.00
56270;BME280;42176;43.240;27.880;2023-03-19T06:18:44;100808.16;;;7.13;100.00
56270;BME280;42176;43.240;27.880;2023-03-19T06:21:11;100802.03;;;7.31;100.00
56270;BME280;42176;43.240;27.880;2023-03-19T06:23:37;100821.50;;;5.91;100.00
56270;BME280;42176;43.240;27.880;2023-03-19T06:26:03;100825.03;;;5.97;100.00
56270;BME280;42176;43.240;27.880;2023-03-19T06:28:30;100830.56;;;6.28;100.00
56270;BME280;42176;43.240;27.880;2023-03-19T06:30:55;100836.66;;;6.17;100.00
56270;BME280;42176;43.240;27.880;2023-03-19T06:33:21;100831.88;;;5.74;100.00
56270;BME280;42176;43.240;27.880;2023-03-19T06:35:47;100826.91;;;6.04;100.00
56270;BME280;42176;43.240;27.880;2023-03-19T06:38:13;100828.84;;;6.30;100.00
56270;BME280;42176;43.240;27.880;2023-03-19T06:40:38;100829.72;;;6.33;100.00
56270;BME280;42176;43.240;27.880;2023-03-19T06:43:04;100835.41;;;5.78;100.00
56270;BME280;42176;43.240;27.880;2023-03-19T06:45:29;100841.88;;;6.13;100.00
56270;BME280;42176;43.240;27.880;2023-03-19T06:47:55;100834.25;;;6.51;100.00
56270;BME280;42176;43.240;27.880;2023-03-19T06:50:22;100843.09;;;6.63;100.00
56270;BME280;42176;43.240;27.880;2023-03-19T06:52:47;100855.72;;;5.91;100.00
56270;BME280;42176;43.240;27.880;2023-03-19T06:55:13;100856.03;;;6.27;100.00
56270;BME280;42176;43.240;27.880;2023-03-19T06:57:38;100865.91;;;6.62;100.00
56270;BME280;42176;43.240;27.880;2023-03-19T07:00:05;100857.16;;;6.65;100.00
56270;BME280;42176;43.240;27.880;2023-03-19T07:02:31;100854.84;;;5.95;100.00
56270;BME280;42176;43.240;27.880;2023-03-19T07:04:56;100862.16;;;6.28;100.00
56270;BME280;42176;43.240;27.880;2023-03-19T07:07:22;100872.88;;;6.52;100.00
56270;BME280;42176;43.240;27.880;2023-03-19T07:09:47;100873.03;;;6.77;100.00
56270;BME280;42176;43.240;27.880;2023-03-19T07:12:13;100870.09;;;6.29;100.00
56270;BME280;42176;43.240;27.880;2023-03-19T07:14:38;100867.13;;;5.92;100.00
56270;BME280;42176;43.240;27.880;2023-03-19T07:17:04;100870.13;;;6.34;100.00
56270;BME280;42176;43.240;27.880;2023-03-19T07:19:29;100869.44;;;6.63;100.00
56270;BME280;42176;43.240;27.880;2023-03-19T07:21:55;100864.31;;;6.91;100.00
56270;BME280;42176;43.240;27.880;2023-03-19T07:24:20;100862.66;;;7.25;100.00
56270;BME280;42176;43.240;27.880;2023-03-19T07:26:46;100860.97;;;7.47;100.00
56270;BME280;42176;43.240;27.880;2023-03-19T07:29:12;100870.69;;;7.62;100.00
56270;BME280;42176;43.240;27.880;2023-03-19T07:31:38;100847.84;;;7.68;97.71
56270;BME280;42176;43.240;27.880;2023-03-19T07:34:04;100859.28;;;7.88;96.89
56270;BME280;42176;43.240;27.880;2023-03-19T07:36:30;100859.31;;;8.05;96.11
56270;BME280;42176;43.240;27.880;2023-03-19T07:38:55;100857.50;;;7.67;94.92
56270;BME280;42176;43.240;27.880;2023-03-19T07:41:21;100851.72;;;6.40;100.00
56270;BME280;42176;43.240;27.880;2023-03-19T07:43:47;100865.06;;;6.65;100.00
56270;BME280;42176;43.240;27.880;2023-03-19T07:46:12;100855.59;;;7.10;100.00
56270;BME280;42176;43.240;27.880;2023-03-19T07:48:38;100869.81;;;7.54;100.00
56270;BME280;42176;43.240;27.880;2023-03-19T07:51:03;100857.00;;;6.43;100.00
56270;BME280;42176;43.240;27.880;2023-03-19T07:53:29;100883.13;;;6.15;100.00
56270;BME280;42176;43.240;27.880;2023-03-19T07:55:54;100864.09;;;6.50;100.00
56270;BME280;42176;43.240;27.880;2023-03-19T07:58:20;100875.72;;;6.93;100.00
56270;BME280;42176;43.240;27.880;2023-03-19T08:00:46;100873.28;;;7.39;100.00
56270;BME280;42176;43.240;27.880;2023-03-19T08:03:12;100874.63;;;6.50;100.00
56270;BME280;42176;43.240;27.880;2023-03-19T08:05:37;100869.28;;;6.41;100.00
56270;BME280;42176;43.240;27.880;2023-03-19T08:08:03;100873.06;;;6.86;100.00
56270;BME280;42176;43.240;27.880;2023-03-19T08:10:28;100867.97;;;7.27;100.00
56270;BME280;42176;43.240;27.880;2023-03-19T08:12:54;100871.56;;;7.58;100.00
56270;BME280;42176;43.240;27.880;2023-03-19T08:15:20;100865.47;;;7.84;99.34
56270;BME280;42176;43.240;27.880;2023-03-19T08:17:45;100864.56;;;8.15;96.38
56270;BME280;42176;43.240;27.880;2023-03-19T08:20:13;100872.28;;;7.00;99.10
56270;BME280;42176;43.240;27.880;2023-03-19T08:22:41;100876.66;;;7.04;100.00
56270;BME280;42176;43.240;27.880;2023-03-19T08:25:07;100880.34;;;7.53;100.00
56270;BME280;42176;43.240;27.880;2023-03-19T08:27:34;100855.78;;;7.94;100.00
56270;BME280;42176;43.240;27.880;2023-03-19T08:30:09;100865.41;;;8.45;95.97
56270;BME280;42176;43.240;27.880;2023-03-19T08:32:35;100846.03;;;8.64;92.47
56270;BME280;42176;43.240;27.880;2023-03-19T08:35:01;100850.31;;;9.06;89.52
56270;BME280;42176;43.240;27.880;2023-03-19T08:37:27;100861.78;;;8.97;86.55
56270;BME280;42176;43.240;27.880;2023-03-19T08:39:52;100859.19;;;7.37;97.40
56270;BME280;42176;43.240;27.880;2023-03-19T08:42:19;100857.50;;;7.58;100.00
56270;BME280;42176;43.240;27.880;2023-03-19T08:44:45;100859.28;;;8.27;97.77
56270;BME280;42176;43.240;27.880;2023-03-19T08:47:13;100858.38;;;8.62;92.80
56270;BME280;42176;43.240;27.880;2023-03-19T08:49:38;100850.44;;;7.54;96.69
56270;BME280;42176;43.240;27.880;2023-03-19T08:52:05;100852.25;;;8.11;97.72
56270;BME280;42176;43.240;27.880;2023-03-19T08:54:31;100845.09;;;8.87;93.84
56270;BME280;42176;43.240;27.880;2023-03-19T08:56:59;100848.44;;;9.29;89.95
56270;BME280;42176;43.240;27.880;2023-03-19T08:59:25;100850.03;;;9.55;85.80
56270;BME280;42176;43.240;27.880;2023-03-19T09:01:51;100850.78;;;9.79;83.67
56270;BME280;42176;43.240;27.880;2023-03-19T09:04:19;100847.81;;;10.16;83.26
56270;BME280;42176;43.240;27.880;2023-03-19T09:06:45;100861.81;;;10.31;80.90
56270;BME280;42176;43.240;27.880;2023-03-19T09:09:23;100852.25;;;10.16;81.95
56270;BME280;42176;43.240;27.880;2023-03-19T09:11:49;100865.19;;;10.51;78.23
56270;BME280;42176;43.240;27.880;2023-03-19T09:14:15;100868.97;;;8.30;88.53
56270;BME280;42176;43.240;27.880;2023-03-19T09:16:42;100861.91;;;8.43;95.43
56270;BME280;42176;43.240;27.880;2023-03-19T09:19:08;100853.84;;;8.97;91.55
56270;BME280;42176;43.240;27.880;2023-03-19T09:21:35;100851.13;;;9.25;88.60
56270;BME280;42176;43.240;27.880;2023-03-19T09:24:01;100839.56;;;9.37;85.89
56270;BME280;42176;43.240;27.880;2023-03-19T09:26:26;100848.28;;;9.56;85.74
56270;BME280;42176;43.240;27.880;2023-03-19T09:28:52;100842.88;;;9.73;84.50
56270;BME280;42176;43.240;27.880;2023-03-19T09:31:17;100851.56;;;9.94;82.86
56270;BME280;42176;43.240;27.880;2023-03-19T09:33:43;100802.16;;;9.86;82.51
56270;BME280;42176;43.240;27.880;2023-03-19T09:36:08;100840.63;;;10.28;82.08
56270;BME280;42176;43.240;27.880;2023-03-19T09:38:34;100843.19;;;10.45;80.93
56270;BME280;42176;43.240;27.880;2023-03-19T09:46:03;100837.25;;;8.28;87.33
56270;BME280;42176;43.240;27.880;2023-03-19T09:48:57;100846.09;;;8.52;93.34
56270;BME280;42176;43.240;27.880;2023-03-19T09:51:57;100824.69;;;9.19;88.83
56270;BME280;42176;43.240;27.880;2023-03-19T09:56:59;100813.19;;;10.40;80.50
56270;BME280;42176;43.240;27.880;2023-03-19T09:59:28;100817.84;;;8.70;89.42
56270;BME280;42176;43.240;27.880;2023-03-19T10:02:03;100816.97;;;8.64;94.16
56270;BME280;42176;43.240;27.880;2023-03-19T10:15:29;100812.03;;;9.64;86.00
56270;BME280;42176;43.240;27.880;2023-03-19T10:18:20;100807.22;;;10.14;84.89
56270;BME280;42176;43.240;27.880;2023-03-19T10:20:54;100801.72;;;10.34;81.07
56270;BME280;42176;43.240;27.880;2023-03-19T10:25:58;100810.09;;;10.78;79.38
56270;BME280;42176;43.240;27.880;2023-03-19T10:28:28;100805.47;;;10.96;77.31
56270;BME280;42176;43.240;27.880;2023-03-19T10:33:35;100798.28;;;11.04;75.19
56270;BME280;42176;43.240;27.880;2023-03-19T10:36:07;100810.66;;;9.04;84.34
56270;BME280;42176;43.240;27.880;2023-03-19T10:38:38;100794.44;;;9.62;85.25
56270;BME280;42176;43.240;27.880;2023-03-19T10:43:51;100791.03;;;10.45;80.06
56270;BME280;42176;43.240;27.880;2023-03-19T10:46:17;100803.31;;;10.56;79.20
56270;BME280;42176;43.240;27.880;2023-03-19T10:48:44;100795.97;;;10.76;77.38
56270;BME280;42176;43.240;27.880;2023-03-19T10:51:13;100778.22;;;10.85;76.15
56270;BME280;42176;43.240;27.880;2023-03-19T10:53:40;100773.56;;;11.01;75.62
56270;BME280;42176;43.240;27.880;2023-03-19T10:56:14;100792.03;;;11.08;75.66
56270;BME280;42176;43.240;27.880;2023-03-19T11:01:40;100784.69;;;11.29;74.54
56270;BME280;42176;43.240;27.880;2023-03-19T11:04:22;100760.50;;;10.07;77.71
56270;BME280;42176;43.240;27.880;2023-03-19T11:06:55;100771.25;;;8.25;90.58
56270;BME280;42176;43.240;27.880;2023-03-19T11:09:34;100772.03;;;8.71;94.56
56270;BME280;42176;43.240;27.880;2023-03-19T11:14:40;100772.25;;;9.78;85.51
56270;BME280;42176;43.240;27.880;2023-03-19T11:17:37;100766.53;;;10.21;82.60
56270;BME280;42176;43.240;27.880;2023-03-19T11:22:51;100759.59;;;10.08;79.24
56270;BME280;42176;43.240;27.880;2023-03-19T11:25:27;100756.97;;;8.85;87.69
56270;BME280;42176;43.240;27.880;2023-03-19T11:28:16;100756.50;;;9.58;86.28
56270;BME280;42176;43.240;27.880;2023-03-19T11:30:54;100745.47;;;10.09;82.80
56270;BME280;42176;43.240;27.880;2023-03-19T11:36:26;100740.91;;;9.19;89.81
56270;BME280;42176;43.240;27.880;2023-03-19T11:45:07;100740.72;;;9.47;82.99
56270;BME280;42176;43.240;27.880;2023-03-19T11:50:32;100728.47;;;9.32;90.29
56270;BME280;42176;43.240;27.880;2023-03-19T11:58:50;100739.47;;;8.59;90.45
56270;BME280;42176;43.240;27.880;2023-03-19T12:05:15;100731.81;;;9.54;88.55
56270;BME280;42176;43.240;27.880;2023-03-19T12:07:29;100715.50;;;10.01;84.89
56270;BME280;42176;43.240;27.880;2023-03-19T12:15:58;100713.13;;;9.76;86.89
56270;BME280;42176;43.240;27.880;2023-03-19T12:27:41;100717.09;;;10.17;86.57
56270;BME280;42176;43.240;27.880;2023-03-19T12:30:38;100698.53;;;9.28;85.64
56270;BME280;42176;43.240;27.880;2023-03-19T12:36:20;100698.44;;;10.28;83.67
56270;BME280;42176;43.240;27.880;2023-03-19T12:38:50;100696.47;;;9.65;84.60
56270;BME280;42176;43.240;27.880;2023-03-19T12:41:26;100702.66;;;9.64;86.43
56270;BME280;42176;43.240;27.880;2023-03-19T12:44:28;100705.66;;;10.12;84.10
56270;BME280;42176;43.240;27.880;2023-03-19T12:46:51;100701.38;;;10.02;82.81
56270;BME280;42176;43.240;27.880;2023-03-19T12:54:49;100696.09;;;10.02;80.32
56270;BME280;42176;43.240;27.880;2023-03-19T13:00:14;100700.66;;;9.84;86.68
56270;BME280;42176;43.240;27.880;2023-03-19T13:08:09;100704.13;;;10.72;81.53
56270;BME280;42176;43.240;27.880;2023-03-19T13:10:38;100697.59;;;10.25;86.70
56270;BME280;42176;43.240;27.880;2023-03-19T13:15:51;100684.97;;;10.48;82.43
56270;BME280;42176;43.240;27.880;2023-03-19T13:18:34;100689.78;;;10.86;80.34
56270;BME280;42176;43.240;27.880;2023-03-19T13:21:24;100683.97;;;11.20;78.39
56270;BME280;42176;43.240;27.880;2023-03-19T13:26:43;100692.47;;;10.09;85.05
56270;BME280;42176;43.240;27.880;2023-03-19T13:29:19;100681.53;;;10.42;82.03
56270;BME280;42176;43.240;27.880;2023-03-19T13:32:22;100678.22;;;10.91;79.80
56270;BME280;42176;43.240;27.880;2023-03-19T13:34:51;100676.91;;;11.19;78.58
56270;BME280;42176;43.240;27.880;2023-03-19T13:37:32;100672.88;;;11.49;76.61
56270;BME280;42176;43.240;27.880;2023-03-19T13:40:02;100664.75;;;11.58;73.83
56270;BME280;42176;43.240;27.880;2023-03-19T13:42:37;100659.97;;;11.78;73.52
56270;BME280;42176;43.240;27.880;2023-03-19T13:47:51;100659.34;;;9.72;85.75
56270;BME280;42176;43.240;27.880;2023-03-19T13:50:26;100657.91;;;10.21;82.90
56270;BME280;42176;43.240;27.880;2023-03-19T13:53:31;100661.84;;;10.60;80.45
56270;BME280;42176;43.240;27.880;2023-03-19T13:55:59;100650.09;;;10.81;77.77
56270;BME280;42176;43.240;27.880;2023-03-19T13:58:28;100650.56;;;11.06;76.08
56270;BME280;42176;43.240;27.880;2023-03-19T14:03:59;100643.06;;;11.33;74.94
56270;BME280;42176;43.240;27.880;2023-03-19T14:06:43;100638.25;;;9.62;82.36
56270;BME280;42176;43.240;27.880;2023-03-19T14:09:40;100631.69;;;9.98;83.47
56270;BME280;42176;43.240;27.880;2023-03-19T14:12:39;100627.78;;;10.27;82.18
56270;BME280;42176;43.240;27.880;2023-03-19T14:17:40;100635.00;;;9.32;85.75
56270;BME280;42176;43.240;27.880;2023-03-19T14:22:37;100623.91;;;9.81;82.33
56270;BME280;42176;43.240;27.880;2023-03-19T14:25:20;100628.06;;;9.18;84.32
56270;BME280;42176;43.240;27.880;2023-03-19T14:27:51;100623.56;;;9.26;86.65
56270;BME280;42176;43.240;27.880;2023-03-19T14:30:39;100616.28;;;9.50;85.79
56270;BME280;42176;43.240;27.880;2023-03-19T14:33:19;100613.47;;;9.69;84.71
56270;BME280;42176;43.240;27.880;2023-03-19T14:35:48;100613.25;;;9.87;83.80
56270;BME280;42176;43.240;27.880;2023-03-19T14:38:31;100612.13;;;10.10;82.94